Time;durP1;ratioP1;P1;durP2;ratioP2;P2;SDS_P1;SDS_P2;PMS_P1;PMS_P2;Temp;Humidity;BMP_temperature;BMP_pressure;BME280_temperature;BME280_humidity;BME280_pressure;Samples;Min_cycle;Max_cycle;Signal;HPM_P1;HPM_P2
2023/12/28 00:00:50;;;;;;;20.95;4.22;;;;;;;;;;5070442;28;20020;-79
2023/12/28 00:03:16;;;;;;;15.68;3.17;;;;;;;;;;5062275;28;20507;-79
2023/12/28 00:05:42;;;;;;;22.05;3.60;;;;;;;;;;5050116;28;20013;-79
2023/12/28 00:08:08;;;;;;;19.30;3.25;;;;;;;;;;5057665;28;20095;-79
2023/12/28 00:10:34;;;;;;;19.00;3.38;;;;;;;;;;5070019;28;20138;-79
2023/12/28 00:13:00;;;;;;;20.17;3.65;;;;;;;;;;5066984;28;20608;-79
2023/12/28 00:15:26;;;;;;;17.88;3.33;;;;;;;;;;5049617;28;20021;-79
2023/12/28 00:17:52;;;;;;;19.42;3.58;;;;;;;;;;5052663;28;20139;-79
2023/12/28 00:20:18;;;;;;;17.23;2.70;;;;;;;;;;5071483;28;20502;-79
2023/12/28 00:22:44;;;;;;;28.23;3.53;;;;;;;;;;5070408;28;20020;-79
2023/12/28 00:25:10;;;;;;;19.75;3.35;;;;;;;;;;5049945;28;20053;-79
2023/12/28 00:27:37;;;;;;;22.15;4.10;;;;;;;;;;5051606;28;20086;-79
2023/12/28 00:30:04;;;;;;;20.63;3.53;;;;;;;;;;5070712;28;20016;-79
2023/12/28 00:32:30;;;;;;;21.58;3.78;;;;;;;;;;5071191;28;20115;-79
2023/12/28 00:34:56;;;;;;;18.63;3.85;;;;;;;;;;5050854;28;20100;-79
2023/12/28 00:37:22;;;;;;;24.17;3.47;;;;;;;;;;5049576;28;20377;-79
2023/12/28 00:39:50;;;;;;;23.15;3.72;;;;;;;;;;5066764;28;20040;-79
2023/12/28 00:42:16;;;;;;;25.95;3.17;;;;;;;;;;5069541;28;20473;-79
2023/12/28 00:44:42;;;;;;;16.85;3.17;;;;;;;;;;5055045;28;20425;-79
2023/12/28 00:47:08;;;;;;;24.67;3.83;;;;;;;;;;5050774;28;20017;-79
2023/12/28 00:49:34;;;;;;;22.73;4.05;;;;;;;;;;5063829;28;20020;-79
2023/12/28 00:52:00;;;;;;;21.88;2.88;;;;;;;;;;5069633;28;20021;-79
2023/12/28 00:54:26;;;;;;;21.25;2.78;;;;;;;;;;5056200;28;20039;-79
2023/12/28 00:56:52;;;;;;;18.65;2.80;;;;;;;;;;5049400;28;20388;-79
2023/12/28 00:59:18;;;;;;;21.95;3.40;;;;;;;;;;5059893;28;20454;-79
2023/12/28 01:01:44;;;;;;;17.85;2.60;;;;;;;;;;5069180;28;20013;-78
2023/12/28 01:04:10;;;;;;;16.65;3.38;;;;;;;;;;5059627;28;20104;-79
2023/12/28 01:06:36;;;;;;;26.88;3.60;;;;;;;;;;5048606;28;20017;-79
2023/12/28 01:09:03;;;;;;;21.65;3.10;;;;;;;;;;5056894;28;20019;-79
2023/12/28 01:11:29;;;;;;;19.27;2.80;;;;;;;;;;5068449;28;20005;-79
2023/12/28 01:13:55;;;;;;;19.85;3.15;;;;;;;;;;5062680;28;20104;-79
2023/12/28 01:16:21;;;;;;;24.10;3.63;;;;;;;;;;5048380;28;20507;-79
2023/12/28 01:18:47;;;;;;;22.02;3.10;;;;;;;;;;5055460;28;20024;-79
2023/12/28 01:21:13;;;;;;;20.35;3.40;;;;;;;;;;5068718;28;20021;-79
2023/12/28 01:23:39;;;;;;;31.38;3.55;;;;;;;;;;5066639;28;20028;-79
2023/12/28 01:26:05;;;;;;;22.77;3.78;;;;;;;;;;5049038;28;20040;-79
2023/12/28 01:28:31;;;;;;;22.55;3.75;;;;;;;;;;5050337;28;20457;-79
2023/12/28 01:30:57;;;;;;;24.15;4.05;;;;;;;;;;5069552;28;20040;-79
2023/12/28 01:33:23;;;;;;;21.55;3.40;;;;;;;;;;5069262;28;20085;-79
2023/12/28 01:35:49;;;;;;;27.88;4.03;;;;;;;;;;5048370;28;20469;-79
2023/12/28 01:38:15;;;;;;;27.45;4.13;;;;;;;;;;5050262;28;20139;-79
2023/12/28 01:40:45;;;;;;;27.20;3.75;;;;;;;;;;5067348;28;20155;-79
2023/12/28 01:43:11;;;;;;;30.17;5.00;;;;;;;;;;5068893;28;20009;-79
2023/12/28 01:45:37;;;;;;;23.27;4.10;;;;;;;;;;5050146;28;20029;-79
2023/12/28 01:48:03;;;;;;;29.73;4.18;;;;;;;;;;5048289;28;20388;-79
2023/12/28 01:50:31;;;;;;;28.25;3.75;;;;;;;;;;5065138;28;20115;-79
2023/12/28 01:52:58;;;;;;;27.83;4.10;;;;;;;;;;5069416;28;20025;-79
2023/12/28 01:55:25;;;;;;;23.50;4.22;;;;;;;;;;5053004;28;20029;-79
2023/12/28 01:57:51;;;;;;;25.20;4.13;;;;;;;;;;5049407;28;20267;-79
2023/12/28 02:00:17;;;;;;;19.15;3.22;;;;;;;;;;5062311;28;20021;-79
2023/12/28 02:02:43;;;;;;;27.02;3.42;;;;;;;;;;5068341;28;20444;-79
2023/12/28 02:05:12;;;;;;;21.10;3.78;;;;;;;;;;5055043;28;20021;-79
2023/12/28 02:07:38;;;;;;;20.17;4.07;;;;;;;;;;5048141;28;20572;-79
2023/12/28 02:10:04;;;;;;;22.02;3.05;;;;;;;;;;5059642;28;20127;-79
2023/12/28 02:12:30;;;;;;;25.52;4.13;;;;;;;;;;5069093;28;20090;-79
2023/12/28 02:14:56;;;;;;;17.13;3.13;;;;;;;;;;5058007;28;20025;-79
2023/12/28 02:17:35;;;;;;;17.35;2.78;;;;;;;;;;5047909;28;20362;-79
2023/12/28 02:20:05;;;;;;;21.73;3.20;;;;;;;;;;5057827;28;20012;-79
2023/12/28 02:22:31;;;;;;;21.60;2.90;;;;;;;;;;5067608;28;20017;-79
2023/12/28 02:25:00;;;;;;;22.23;3.35;;;;;;;;;;5059337;28;20309;-79
2023/12/28 02:27:27;;;;;;;20.40;3.42;;;;;;;;;;5047547;28;20017;-78
2023/12/28 02:29:53;;;;;;;19.17;3.35;;;;;;;;;;5055974;28;20766;-79
2023/12/28 02:32:23;;;;;;;20.73;2.70;;;;;;;;;;5068872;28;20096;-79
2023/12/28 02:34:51;;;;;;;20.05;2.80;;;;;;;;;;5060603;28;20321;-79
2023/12/28 02:37:18;;;;;;;23.10;2.92;;;;;;;;;;5047756;28;20051;-79
2023/12/28 02:39:45;;;;;;;12.95;2.65;;;;;;;;;;5055076;28;20066;-79
2023/12/28 02:42:11;;;;;;;12.13;2.05;;;;;;;;;;5067679;28;20017;-79
2023/12/28 02:44:37;;;;;;;16.85;2.17;;;;;;;;;;5063165;28;20025;-79
2023/12/28 02:47:03;;;;;;;16.90;2.60;;;;;;;;;;5047790;28;20025;-79
2023/12/28 02:49:29;;;;;;;18.65;2.70;;;;;;;;;;5050757;28;20071;-79
2023/12/28 02:51:55;;;;;;;13.05;2.35;;;;;;;;;;5067272;28;20017;-79
2023/12/28 02:54:22;;;;;;;22.98;2.92;;;;;;;;;;5067796;28;20052;-79
2023/12/28 02:56:48;;;;;;;19.90;2.75;;;;;;;;;;5047512;28;20048;-79
2023/12/28 02:59:14;;;;;;;14.15;2.08;;;;;;;;;;5048935;28;20020;-79
2023/12/28 03:01:40;;;;;;;15.65;2.72;;;;;;;;;;5066889;28;20017;-79
2023/12/28 03:04:06;;;;;;;18.88;2.53;;;;;;;;;;5067767;28;20017;-79
2023/12/28 03:06:32;;;;;;;19.98;3.22;;;;;;;;;;5050058;28;20047;-79
2023/12/28 03:08:58;;;;;;;17.52;2.55;;;;;;;;;;5046970;28;20017;-79
2023/12/28 03:11:24;;;;;;;18.25;2.65;;;;;;;;;;5063780;28;20102;-79
2023/12/28 03:13:50;;;;;;;12.98;2.55;;;;;;;;;;5067633;28;20017;-79
2023/12/28 03:16:16;;;;;;;19.80;3.15;;;;;;;;;;5054155;28;20036;-79
2023/12/28 03:18:42;;;;;;;15.65;2.58;;;;;;;;;;5052819;28;20006;-79
2023/12/28 03:21:08;;;;;;;18.90;2.47;;;;;;;;;;5061814;28;20358;-79
2023/12/28 03:23:34;;;;;;;16.35;2.55;;;;;;;;;;5072509;28;20020;-79
2023/12/28 03:26:01;;;;;;;29.63;3.83;;;;;;;;;;5062012;28;20358;-79
2023/12/28 03:28:27;;;;;;;14.63;2.08;;;;;;;;;;5050968;28;20020;-79
2023/12/28 03:30:53;;;;;;;10.98;2.33;;;;;;;;;;5059528;28;20027;-79
2023/12/28 03:33:19;;;;;;;15.70;2.33;;;;;;;;;;5070832;28;20017;-79
2023/12/28 03:35:45;;;;;;;14.20;2.70;;;;;;;;;;5063975;28;20041;-79
2023/12/28 03:38:11;;;;;;;16.10;2.97;;;;;;;;;;5051115;28;20549;-79
2023/12/28 03:40:37;;;;;;;13.52;1.80;;;;;;;;;;5055501;28;20107;-79
2023/12/28 03:43:03;;;;;;;19.60;2.53;;;;;;;;;;5070963;28;20023;-78
2023/12/28 03:45:29;;;;;;;12.98;1.83;;;;;;;;;;5067860;28;20595;-79
2023/12/28 03:47:55;;;;;;;20.90;2.50;;;;;;;;;;5052335;28;20014;-79
2023/12/28 03:50:21;;;;;;;16.58;2.28;;;;;;;;;;5052931;28;20025;-79
2023/12/28 03:52:47;;;;;;;15.30;2.22;;;;;;;;;;5070307;28;20075;-79
2023/12/28 03:55:13;;;;;;;16.85;3.08;;;;;;;;;;5070354;28;20428;-79
2023/12/28 03:57:42;;;;;;;17.80;3.65;;;;;;;;;;5050312;28;20028;-79
2023/12/28 04:00:08;;;;;;;22.80;3.65;;;;;;;;;;5050706;28;20013;-79
2023/12/28 04:02:34;;;;;;;9.15;2.05;;;;;;;;;;5069103;28;20024;-79
2023/12/28 04:05:00;;;;;;;20.15;2.97;;;;;;;;;;5071686;28;20400;-79
2023/12/28 04:07:26;;;;;;;21.13;2.95;;;;;;;;;;5052616;28;20477;-79
2023/12/28 04:09:52;;;;;;;13.10;1.98;;;;;;;;;;5050189;28;20021;-79
2023/12/28 04:12:18;;;;;;;16.73;2.60;;;;;;;;;;5067396;28;20056;-79
2023/12/28 04:14:44;;;;;;;22.08;2.83;;;;;;;;;;5070149;28;20032;-79
2023/12/28 04:17:10;;;;;;;15.93;2.45;;;;;;;;;;5055939;28;20017;-79
2023/12/28 04:19:36;;;;;;;17.70;2.22;;;;;;;;;;5051716;28;20024;-79
2023/12/28 04:22:02;;;;;;;14.52;2.55;;;;;;;;;;5050005;28;20638;-79
2023/12/28 04:24:28;;;;;;;20.00;3.13;;;;;;;;;;5051769;28;20017;-78
2023/12/28 04:26:55;;;;;;;15.65;2.60;;;;;;;;;;5061457;28;20028;-79
2023/12/28 04:29:21;;;;;;;19.42;2.58;;;;;;;;;;5071296;28;20020;-78
2023/12/28 04:31:47;;;;;;;20.35;2.97;;;;;;;;;;5060190;28;20094;-79
2023/12/28 04:34:13;;;;;;;17.75;4.07;;;;;;;;;;5051332;28;20115;-78
2023/12/28 04:36:43;;;;;;;20.60;3.30;;;;;;;;;;5058509;28;20020;-79
2023/12/28 04:39:09;;;;;;;20.33;2.53;;;;;;;;;;5069655;28;20472;-79
2023/12/28 04:41:35;;;;;;;23.20;3.17;;;;;;;;;;5064249;28;20020;-79
2023/12/28 04:44:01;;;;;;;22.60;3.15;;;;;;;;;;5050744;28;20021;-79
2023/12/28 04:46:27;;;;;;;19.58;2.50;;;;;;;;;;5056464;28;20480;-79
2023/12/28 04:48:53;;;;;;;20.20;2.88;;;;;;;;;;5069778;28;20008;-79
2023/12/28 04:51:19;;;;;;;20.23;3.30;;;;;;;;;;5066891;28;20013;-79
2023/12/28 04:53:45;;;;;;;19.85;2.70;;;;;;;;;;5049959;28;20048;-79
2023/12/28 04:56:11;;;;;;;18.23;2.92;;;;;;;;;;5051646;28;20033;-79
2023/12/28 04:58:37;;;;;;;21.35;3.03;;;;;;;;;;5069448;28;20013;-79
2023/12/28 05:01:03;;;;;;;20.42;3.20;;;;;;;;;;5069634;28;20017;-79
2023/12/28 05:03:29;;;;;;;26.15;3.47;;;;;;;;;;5050855;28;20017;-79
2023/12/28 05:05:55;;;;;;;21.98;2.88;;;;;;;;;;5049411;28;20048;-79
2023/12/28 05:08:21;;;;;;;19.38;2.72;;;;;;;;;;5068693;28;20016;-79
2023/12/28 05:10:47;;;;;;;20.83;2.60;;;;;;;;;;5069160;28;20078;-79
2023/12/28 05:13:13;;;;;;;20.95;2.45;;;;;;;;;;5051121;28;20025;-79
2023/12/28 05:15:39;;;;;;;19.02;2.83;;;;;;;;;;5048742;28;20541;-79
2023/12/28 05:18:07;;;;;;;22.27;4.57;;;;;;;;;;5065460;28;20024;-79
2023/12/28 05:20:33;;;;;;;23.23;3.15;;;;;;;;;;5070185;28;20073;-79
2023/12/28 05:22:59;;;;;;;21.00;4.20;;;;;;;;;;5056129;28;20054;-79
2023/12/28 05:25:25;;;;;;;23.52;3.80;;;;;;;;;;5048724;28;20025;-79
2023/12/28 05:27:51;;;;;;;21.15;3.50;;;;;;;;;;5058998;28;20093;-79
2023/12/28 05:30:17;;;;;;;23.95;3.10;;;;;;;;;;5068436;28;20055;-79
2023/12/28 05:32:43;;;;;;;18.63;2.58;;;;;;;;;;5061531;28;20056;-79
2023/12/28 05:35:09;;;;;;;25.08;3.78;;;;;;;;;;5048471;28;20045;-79
2023/12/28 05:37:35;;;;;;;18.30;2.53;;;;;;;;;;5055031;28;20020;-79
2023/12/28 05:40:01;;;;;;;29.58;3.85;;;;;;;;;;5067607;28;20016;-78
2023/12/28 05:42:27;;;;;;;24.85;3.35;;;;;;;;;;5064169;28;20036;-80
2023/12/28 05:44:53;;;;;;;26.80;3.50;;;;;;;;;;5048697;28;20022;-79
2023/12/28 05:47:19;;;;;;;20.60;3.03;;;;;;;;;;5051988;28;20016;-79
2023/12/28 05:49:45;;;;;;;23.90;3.40;;;;;;;;;;5068077;28;20452;-79
2023/12/28 05:52:14;;;;;;;23.67;3.33;;;;;;;;;;5067335;28;20070;-79
2023/12/28 05:54:42;;;;;;;15.40;2.83;;;;;;;;;;5048142;28;20036;-79
2023/12/28 05:57:08;;;;;;;16.02;3.03;;;;;;;;;;5050412;28;20012;-79
2023/12/28 05:59:37;;;;;;;25.60;3.17;;;;;;;;;;5069646;28;20045;-77
2023/12/28 06:02:03;;;;;;;25.25;3.78;;;;;;;;;;5068232;28;20066;-82
2023/12/28 06:04:29;;;;;;;23.13;3.30;;;;;;;;;;5048539;28;20016;-81
2023/12/28 06:06:55;;;;;;;24.58;2.88;;;;;;;;;;5047819;28;20465;-81
2023/12/28 06:09:21;;;;;;;21.20;3.00;;;;;;;;;;5053609;28;20057;-81
2023/12/28 06:11:47;;;;;;;29.55;3.42;;;;;;;;;;5056186;28;20028;-80
2023/12/28 06:14:13;;;;;;;27.33;3.58;;;;;;;;;;5051068;28;20468;-81
2023/12/28 06:16:39;;;;;;;20.95;3.90;;;;;;;;;;5047361;28;20023;-81
2023/12/28 06:19:05;;;;;;;22.45;3.13;;;;;;;;;;5051120;28;20021;-80
2023/12/28 06:21:32;;;;;;;25.17;3.38;;;;;;;;;;5047829;28;20013;-81
2023/12/28 06:23:58;;;;;;;26.65;3.30;;;;;;;;;;5047691;28;20024;-81
2023/12/28 06:26:25;;;;;;;24.73;3.85;;;;;;;;;;5047819;28;20020;-81
2023/12/28 06:28:51;;;;;;;20.02;2.88;;;;;;;;;;5049157;28;20373;-81
2023/12/28 06:31:17;;;;;;;21.98;3.42;;;;;;;;;;5049108;28;20017;-81
2023/12/28 06:33:43;;;;;;;28.33;3.90;;;;;;;;;;5048943;28;20578;-82
2023/12/28 06:36:10;;;;;;;24.30;3.38;;;;;;;;;;5049191;28;20063;-81
2023/12/28 06:38:37;;;;;;;27.00;4.07;;;;;;;;;;5054310;28;20294;-81
2023/12/28 06:41:03;;;;;;;28.27;3.40;;;;;;;;;;5069140;28;20048;-81
2023/12/28 06:43:29;;;;;;;24.30;3.30;;;;;;;;;;5063737;28;20005;-81
2023/12/28 06:45:55;;;;;;;28.85;3.45;;;;;;;;;;5047324;28;20028;-81
2023/12/28 06:48:21;;;;;;;24.88;3.15;;;;;;;;;;5053176;28;20036;-82
2023/12/28 06:50:47;;;;;;;21.10;3.05;;;;;;;;;;5068732;28;20020;-81
2023/12/28 06:53:13;;;;;;;24.65;4.45;;;;;;;;;;5069001;28;20013;-82
2023/12/28 06:55:39;;;;;;;30.42;4.10;;;;;;;;;;5051876;28;20025;-82
2023/12/28 06:58:07;;;;;;;24.13;3.67;;;;;;;;;;5052469;28;20017;-81
2023/12/28 07:00:33;;;;;;;31.15;3.78;;;;;;;;;;5071604;28;20021;-84
2023/12/28 07:02:59;;;;;;;27.55;4.25;;;;;;;;;;5071689;28;20012;-81
2023/12/28 07:05:25;;;;;;;23.30;4.93;;;;;;;;;;5052128;28;20083;-80
2023/12/28 07:07:51;;;;;;;28.88;3.67;;;;;;;;;;5051345;28;20059;-81
2023/12/28 07:10:17;;;;;;;28.45;3.40;;;;;;;;;;5069624;28;20017;-84
2023/12/28 07:12:43;;;;;;;27.85;4.43;;;;;;;;;;5071995;28;20070;-81
2023/12/28 07:15:13;;;;;;;24.92;3.60;;;;;;;;;;5055460;28;20029;-82
2023/12/28 07:17:39;;;;;;;21.52;3.80;;;;;;;;;;5052163;28;20524;-83
2023/12/28 07:20:06;;;;;;;31.13;4.30;;;;;;;;;;5066681;28;20020;-85
2023/12/28 07:22:32;;;;;;;28.17;5.57;;;;;;;;;;5055480;28;20359;-84
2023/12/28 07:24:58;;;;;;;32.10;4.85;;;;;;;;;;5052413;28;20066;-84
2023/12/28 07:27:24;;;;;;;32.80;4.63;;;;;;;;;;5051038;28;20377;-83
2023/12/28 07:29:50;;;;;;;33.67;5.30;;;;;;;;;;5052535;28;20461;-84
2023/12/28 07:32:16;;;;;;;30.27;4.22;;;;;;;;;;5051035;28;20025;-83
2023/12/28 07:34:42;;;;;;;31.02;4.47;;;;;;;;;;5061343;28;20090;-84
2023/12/28 07:37:08;;;;;;;43.13;6.03;;;;;;;;;;5050305;28;20017;-83
2023/12/28 07:39:34;;;;;;;31.17;5.25;;;;;;;;;;5052112;28;20024;-80
2023/12/28 07:42:00;;;;;;;31.90;4.28;;;;;;;;;;5050645;28;20013;-84
2023/12/28 07:44:27;;;;;;;29.38;4.43;;;;;;;;;;5051392;28;20017;-83
2023/12/28 07:46:53;;;;;;;33.17;5.32;;;;;;;;;;5050805;28;20519;-83
2023/12/28 07:49:19;;;;;;;32.47;4.32;;;;;;;;;;5049923;28;20021;-82
2023/12/28 07:51:45;;;;;;;33.35;5.13;;;;;;;;;;5049600;28;20103;-82
2023/12/28 07:54:11;;;;;;;31.20;5.47;;;;;;;;;;5052258;28;20363;-82
2023/12/28 07:56:37;;;;;;;37.72;5.57;;;;;;;;;;5051534;28;20013;-83
2023/12/28 07:59:03;;;;;;;44.97;5.35;;;;;;;;;;5058113;28;20483;-82
2023/12/28 08:01:29;;;;;;;40.00;4.63;;;;;;;;;;5056143;28;20013;-83
2023/12/28 08:03:55;;;;;;;34.90;5.43;;;;;;;;;;5049045;28;20017;-83
2023/12/28 08:06:21;;;;;;;34.10;4.72;;;;;;;;;;5050269;28;20321;-82
2023/12/28 08:08:48;;;;;;;37.38;4.68;;;;;;;;;;5058423;28;20392;-82
2023/12/28 08:11:14;;;;;;;35.10;5.72;;;;;;;;;;5058933;28;20020;-82
2023/12/28 08:13:40;;;;;;;31.10;5.32;;;;;;;;;;5059164;28;20021;-82
2023/12/28 08:16:06;;;;;;;38.10;5.25;;;;;;;;;;5061943;28;20031;-83
2023/12/28 08:18:32;;;;;;;40.55;4.85;;;;;;;;;;5062527;28;20111;-82
2023/12/28 08:21:00;;;;;;;32.78;4.75;;;;;;;;;;5057580;28;20071;-82
2023/12/28 08:23:26;;;;;;;36.72;4.50;;;;;;;;;;5049404;28;20108;-82
2023/12/28 08:25:52;;;;;;;35.20;5.63;;;;;;;;;;5064585;28;20510;-82
2023/12/28 08:28:18;;;;;;;32.20;5.88;;;;;;;;;;5052325;28;20021;-83
2023/12/28 08:30:44;;;;;;;34.60;5.65;;;;;;;;;;5051188;28;20021;-83
2023/12/28 08:33:10;;;;;;;42.30;4.63;;;;;;;;;;5050464;28;20388;-83
2023/12/28 08:35:36;;;;;;;36.30;5.03;;;;;;;;;;5050306;28;20143;-82
2023/12/28 08:38:02;;;;;;;31.50;4.47;;;;;;;;;;5050110;28;20017;-82
2023/12/28 08:40:28;;;;;;;39.65;6.25;;;;;;;;;;5059182;28;20539;-82
2023/12/28 08:42:54;;;;;;;32.45;5.00;;;;;;;;;;5056333;28;20112;-82
2023/12/28 08:45:20;;;;;;;40.08;5.38;;;;;;;;;;5046741;28;20072;-82
2023/12/28 08:47:46;;;;;;;30.80;3.97;;;;;;;;;;5049674;28;20504;-82
2023/12/28 08:50:12;;;;;;;28.50;4.25;;;;;;;;;;5056502;28;20012;-82
2023/12/28 08:52:38;;;;;;;35.83;4.75;;;;;;;;;;5049657;28;20025;-82
2023/12/28 08:55:05;;;;;;;28.13;5.85;;;;;;;;;;5053384;28;20135;-82
2023/12/28 08:57:31;;;;;;;30.85;4.38;;;;;;;;;;5068117;28;20461;-82
2023/12/28 08:59:59;;;;;;;36.85;4.93;;;;;;;;;;5066968;28;20099;-82
2023/12/28 09:02:28;;;;;;;31.65;4.20;;;;;;;;;;5048456;28;20062;-82
2023/12/28 09:04:54;;;;;;;34.35;5.25;;;;;;;;;;5048621;28;20028;-82
2023/12/28 09:07:20;;;;;;;38.25;5.07;;;;;;;;;;5068443;28;20112;-82
2023/12/28 09:09:46;;;;;;;33.05;5.25;;;;;;;;;;5068513;28;20104;-82
2023/12/28 09:12:12;;;;;;;26.80;4.95;;;;;;;;;;5049479;28;20704;-82
2023/12/28 09:14:38;;;;;;;30.75;4.82;;;;;;;;;;5047461;28;20508;-82
2023/12/28 09:17:04;;;;;;;43.05;4.95;;;;;;;;;;5065399;28;20020;-82
2023/12/28 09:19:30;;;;;;;38.25;4.57;;;;;;;;;;5070138;28;20021;-85
2023/12/28 09:21:56;;;;;;;31.55;4.70;;;;;;;;;;5052863;28;20017;-85
2023/12/28 09:24:23;;;;;;;26.80;4.22;;;;;;;;;;5049125;28;20111;-84
2023/12/28 09:26:49;;;;;;;41.72;7.05;;;;;;;;;;5063835;28;20108;-85
2023/12/28 09:29:15;;;;;;;37.47;4.60;;;;;;;;;;5069059;28;20111;-85
2023/12/28 09:31:41;;;;;;;34.00;5.47;;;;;;;;;;5055678;28;20025;-85
2023/12/28 09:34:07;;;;;;;34.55;5.78;;;;;;;;;;5048722;28;20037;-84
2023/12/28 09:36:33;;;;;;;33.08;5.68;;;;;;;;;;5060473;28;20024;-85
2023/12/28 09:38:59;;;;;;;28.38;4.30;;;;;;;;;;5068643;28;20009;-84
2023/12/28 09:41:30;;;;;;;31.98;3.70;;;;;;;;;;5060236;28;20013;-84
2023/12/28 09:44:11;;;;;;;30.55;3.97;;;;;;;;;;5048926;28;20045;-85
2023/12/28 09:46:38;;;;;;;31.63;5.18;;;;;;;;;;5052983;28;20025;-84
2023/12/28 09:49:05;;;;;;;35.47;5.18;;;;;;;;;;5056771;28;20049;-85
2023/12/28 09:51:31;;;;;;;31.15;5.05;;;;;;;;;;5049464;28;20013;-84
2023/12/28 09:53:57;;;;;;;39.85;4.88;;;;;;;;;;5044630;28;20017;-84
2023/12/28 09:56:24;;;;;;;26.90;4.68;;;;;;;;;;5050074;28;20021;-85
2023/12/28 09:58:51;;;;;;;32.95;4.72;;;;;;;;;;5049446;28;20009;-84
2023/12/28 10:01:20;;;;;;;31.67;4.47;;;;;;;;;;5055101;28;20103;-85
2023/12/28 10:03:46;;;;;;;25.58;3.90;;;;;;;;;;5069468;28;20020;-85
2023/12/28 10:06:15;;;;;;;26.30;4.25;;;;;;;;;;5063830;28;20013;-85
2023/12/28 10:08:50;;;;;;;23.70;5.50;;;;;;;;;;5049218;28;20071;-85
2023/12/28 10:11:17;;;;;;;27.52;4.63;;;;;;;;;;5053049;28;20013;-85
2023/12/28 10:13:43;;;;;;;23.98;4.00;;;;;;;;;;5044835;28;20036;-84
2023/12/28 10:16:13;;;;;;;28.23;4.05;;;;;;;;;;5052418;28;20036;-85
2023/12/28 10:18:48;;;;;;;25.47;4.43;;;;;;;;;;5069419;28;20025;-84
2023/12/28 10:21:14;;;;;;;24.83;3.30;;;;;;;;;;5037868;28;20244;-85
2023/12/28 10:23:40;;;;;;;28.52;3.55;;;;;;;;;;5062382;28;20032;-84
2023/12/28 10:26:06;;;;;;;30.20;5.10;;;;;;;;;;5048741;28;20013;-84
2023/12/28 10:28:33;;;;;;;30.90;4.40;;;;;;;;;;5058112;28;20481;-83
2023/12/28 10:30:59;;;;;;;25.55;5.05;;;;;;;;;;5049250;28;20079;-85
2023/12/28 10:33:25;;;;;;;31.10;4.63;;;;;;;;;;5048777;28;20043;-85
2023/12/28 10:35:53;;;;;;;28.73;4.80;;;;;;;;;;5042727;28;20091;-85
2023/12/28 10:38:20;;;;;;;30.67;4.38;;;;;;;;;;5054600;28;20022;-84
2023/12/28 10:40:48;;;;;;;27.48;4.95;;;;;;;;;;5029386;28;20030;-85
2023/12/28 10:43:17;;;;;;;30.70;5.53;;;;;;;;;;5053743;28;20112;-85
2023/12/28 10:45:47;;;;;;;27.92;4.68;;;;;;;;;;5048327;28;20049;-84
2023/12/28 10:48:13;;;;;;;30.63;4.25;;;;;;;;;;5066850;28;20202;-84
2023/12/28 10:50:40;;;;;;;37.58;5.97;;;;;;;;;;5069799;28;20029;-86
2023/12/28 10:53:29;;;;;;;31.90;4.43;;;;;;;;;;5069687;28;20558;-85
2023/12/28 10:56:14;;;;;;;18.83;2.90;;;;;;;;;;5023676;28;20581;-75
2023/12/28 10:58:46;;;;;;;27.45;4.45;;;;;;;;;;5035792;28;20036;-75
2023/12/28 11:01:14;;;;;;;24.83;3.78;;;;;;;;;;5046967;28;20021;-75
2023/12/28 11:03:41;;;;;;;24.35;4.70;;;;;;;;;;5056029;28;20040;-75
2023/12/28 11:06:09;;;;;;;28.20;4.10;;;;;;;;;;5028370;28;20033;-75
2023/12/28 11:08:36;;;;;;;32.20;4.88;;;;;;;;;;5047858;28;20032;-75
2023/12/28 11:11:03;;;;;;;25.80;3.80;;;;;;;;;;5047982;28;20091;-75
2023/12/28 11:13:30;;;;;;;24.90;3.72;;;;;;;;;;5045940;28;20397;-75
2023/12/28 11:15:57;;;;;;;24.90;3.88;;;;;;;;;;5044685;28;20037;-75
2023/12/28 11:18:24;;;;;;;24.17;3.85;;;;;;;;;;5057359;28;20035;-74
2023/12/28 11:20:51;;;;;;;26.83;3.95;;;;;;;;;;5044682;28;20063;-75
2023/12/28 11:23:17;;;;;;;28.75;3.72;;;;;;;;;;5058642;28;20023;-75
2023/12/28 11:25:43;;;;;;;26.65;4.53;;;;;;;;;;5046760;28;20021;-75
2023/12/28 11:28:10;;;;;;;28.00;4.25;;;;;;;;;;5048062;28;20025;-75
2023/12/28 11:30:36;;;;;;;34.55;5.35;;;;;;;;;;5046265;28;20013;-75
2023/12/28 11:33:04;;;;;;;28.13;3.88;;;;;;;;;;5047766;28;20104;-75
2023/12/28 11:35:39;;;;;;;29.13;3.83;;;;;;;;;;5048715;28;20147;-75
2023/12/28 11:38:08;;;;;;;38.45;6.30;;;;;;;;;;5048406;28;20477;-75
2023/12/28 11:40:48;;;;;;;31.63;5.15;;;;;;;;;;5050213;28;20143;-74
2023/12/28 11:43:21;;;;;;;32.90;4.28;;;;;;;;;;5061325;28;20274;-75
2023/12/28 11:45:55;;;;;;;28.48;4.15;;;;;;;;;;5061241;28;20029;-75
2023/12/28 11:48:28;;;;;;;24.58;3.75;;;;;;;;;;5055008;28;20028;-74
2023/12/28 11:50:58;;;;;;;26.50;3.90;;;;;;;;;;5039280;28;20488;-75
2023/12/28 11:53:25;;;;;;;24.83;4.10;;;;;;;;;;5056538;28;20146;-75
2023/12/28 11:55:51;;;;;;;32.10;4.10;;;;;;;;;;5070028;28;20033;-75
2023/12/28 11:58:18;;;;;;;34.80;6.63;;;;;;;;;;5056492;28;20489;-75
2023/12/28 12:00:44;;;;;;;32.60;5.75;;;;;;;;;;5050399;28;20084;-75
2023/12/28 12:03:11;;;;;;;31.55;5.45;;;;;;;;;;5060616;28;20013;-75
2023/12/28 12:05:37;;;;;;;26.83;4.00;;;;;;;;;;5069507;28;20027;-75
2023/12/28 12:08:03;;;;;;;26.13;3.95;;;;;;;;;;5064249;28;20032;-74
2023/12/28 12:10:29;;;;;;;27.17;4.80;;;;;;;;;;5071092;28;20431;-75
2023/12/28 12:12:55;;;;;;;32.45;4.68;;;;;;;;;;5061164;28;20480;-75
2023/12/28 12:15:21;;;;;;;26.10;4.97;;;;;;;;;;5050681;28;20029;-74
2023/12/28 12:17:48;;;;;;;34.60;4.90;;;;;;;;;;5054862;28;20021;-74
2023/12/28 12:20:14;;;;;;;30.88;3.97;;;;;;;;;;5071172;28;20025;-74
2023/12/28 12:22:40;;;;;;;34.03;4.75;;;;;;;;;;5068617;28;20021;-74
2023/12/28 12:25:08;;;;;;;29.27;4.00;;;;;;;;;;5049687;28;20036;-74
2023/12/28 12:27:34;;;;;;;23.70;4.85;;;;;;;;;;5051660;28;20025;-74
2023/12/28 12:30:00;;;;;;;29.08;4.78;;;;;;;;;;5071474;28;20030;-75
2023/12/28 12:32:27;;;;;;;31.52;4.75;;;;;;;;;;5070944;28;20017;-75
2023/12/28 12:34:53;;;;;;;32.53;3.58;;;;;;;;;;5049436;28;20453;-74
2023/12/28 12:37:20;;;;;;;29.40;4.00;;;;;;;;;;5049508;28;20021;-75
2023/12/28 12:39:46;;;;;;;34.88;4.85;;;;;;;;;;5050748;28;20544;-75
2023/12/28 12:42:15;;;;;;;32.67;4.30;;;;;;;;;;5049570;28;20025;-75
2023/12/28 12:44:41;;;;;;;25.23;3.88;;;;;;;;;;5051607;28;20279;-74
2023/12/28 12:47:07;;;;;;;26.92;3.92;;;;;;;;;;5052767;28;20492;-75
2023/12/28 12:49:33;;;;;;;24.88;3.83;;;;;;;;;;5050919;28;20045;-75
2023/12/28 12:51:59;;;;;;;28.50;4.72;;;;;;;;;;5056231;28;20103;-74
2023/12/28 12:54:27;;;;;;;24.83;3.83;;;;;;;;;;5061690;28;20421;-74
2023/12/28 12:56:53;;;;;;;25.13;4.25;;;;;;;;;;5059596;28;20021;-78
2023/12/28 12:59:19;;;;;;;27.48;4.18;;;;;;;;;;5048064;28;20107;-75
2023/12/28 13:01:49;;;;;;;33.08;4.80;;;;;;;;;;5046203;28;20075;-75
2023/12/28 13:04:15;;;;;;;37.33;4.93;;;;;;;;;;5066599;28;20029;-75
2023/12/28 13:06:42;;;;;;;28.45;4.15;;;;;;;;;;5050681;28;20221;-75
2023/12/28 13:09:10;;;;;;;29.08;3.85;;;;;;;;;;5048911;28;20142;-76
2023/12/28 13:11:36;;;;;;;26.05;3.67;;;;;;;;;;5045107;28;20105;-75
2023/12/28 13:14:03;;;;;;;19.55;3.70;;;;;;;;;;5049062;28;20036;-75
2023/12/28 13:16:29;;;;;;;24.92;3.95;;;;;;;;;;5049806;28;20025;-75
2023/12/28 13:18:55;;;;;;;26.90;4.78;;;;;;;;;;5049516;28;20422;-76
2023/12/28 13:21:21;;;;;;;21.65;3.80;;;;;;;;;;5047953;28;20248;-76
2023/12/28 13:23:47;;;;;;;37.80;6.25;;;;;;;;;;5049860;28;20078;-75
2023/12/28 13:26:13;;;;;;;25.38;6.20;;;;;;;;;;5048354;28;20105;-75
2023/12/28 13:28:39;;;;;;;24.73;3.90;;;;;;;;;;5049828;28;20033;-75
2023/12/28 13:31:05;;;;;;;27.20;4.50;;;;;;;;;;5047592;28;20036;-76
2023/12/28 13:33:31;;;;;;;23.50;3.63;;;;;;;;;;5047386;28;20025;-75
2023/12/28 13:35:58;;;;;;;26.90;4.00;;;;;;;;;;5046128;28;20496;-76
2023/12/28 13:38:23;;;;;;;29.98;4.68;;;;;;;;;;5045162;28;20043;-75
2023/12/28 13:40:50;;;;;;;25.20;3.53;;;;;;;;;;5049994;28;20473;-76
2023/12/28 13:43:16;;;;;;;22.70;3.63;;;;;;;;;;5049013;28;20022;-75
2023/12/28 13:45:42;;;;;;;33.50;5.50;;;;;;;;;;5051116;28;20013;-75
2023/12/28 13:48:08;;;;;;;32.50;5.30;;;;;;;;;;5049206;28;20040;-76
2023/12/28 13:50:35;;;;;;;31.58;5.15;;;;;;;;;;5065094;28;20008;-75
2023/12/28 13:53:01;;;;;;;25.08;3.50;;;;;;;;;;5067632;28;20050;-81
2023/12/28 13:55:28;;;;;;;24.13;3.55;;;;;;;;;;5054396;28;20102;-75
2023/12/28 13:57:54;;;;;;;21.48;4.45;;;;;;;;;;5046734;28;20029;-73
2023/12/28 14:00:20;;;;;;;23.23;3.85;;;;;;;;;;5059262;28;20042;-75
2023/12/28 14:02:46;;;;;;;25.90;4.00;;;;;;;;;;5049452;28;20477;-74
2023/12/28 14:05:12;;;;;;;22.73;3.63;;;;;;;;;;5060644;28;20112;-75
2023/12/28 14:07:38;;;;;;;27.70;4.28;;;;;;;;;;5055465;28;20249;-75
2023/12/28 14:10:04;;;;;;;22.23;3.42;;;;;;;;;;5056642;28;20103;-74
2023/12/28 14:12:30;;;;;;;21.40;3.13;;;;;;;;;;5066546;28;20021;-74
2023/12/28 14:14:57;;;;;;;21.70;4.00;;;;;;;;;;5058630;28;20032;-74
2023/12/28 14:17:23;;;;;;;18.48;3.53;;;;;;;;;;5046151;28;20094;-74
2023/12/28 14:19:49;;;;;;;24.35;3.75;;;;;;;;;;5040602;28;20025;-74
2023/12/28 14:22:15;;;;;;;26.10;4.00;;;;;;;;;;5045930;28;20037;-74
2023/12/28 14:24:41;;;;;;;27.40;3.90;;;;;;;;;;5052506;28;20055;-74
2023/12/28 14:27:07;;;;;;;30.58;3.58;;;;;;;;;;5064978;28;20062;-74